Time;durP1;ratioP1;P1;durP2;ratioP2;P2;SDS_P1;SDS_P2;PMS_P1;PMS_P2;Temp;Humidity;BMP_temperature;BMP_pressure;BME280_temperature;BME280_humidity;BME280_pressure;Samples;Min_cycle;Max_cycle;Signal;HPM_P1;HPM_P2
2022/10/05 00:01:31;;;;;;;25.00;10.90;;;;;;;7.01;85.11;100954.89;106223;1268;22533;-56
2022/10/05 00:04:10;;;;;;;28.40;12.80;;;;;;;7.02;85.12;100947.73;106308;1268;24351;-55
2022/10/05 00:06:42;;;;;;;27.70;11.30;;;;;;;7.02;85.42;100942.17;106369;1265;24268;-58
2022/10/05 00:09:17;;;;;;;29.20;12.50;;;;;;;7.02;85.56;100935.44;106120;1268;22536;-57
2022/10/05 00:11:50;;;;;;;28.90;11.80;;;;;;;7.02;85.54;100936.23;106169;1268;22754;-57
2022/10/05 00:14:25;;;;;;;27.40;11.10;;;;;;;7.02;85.52;100929.17;106129;1267;22943;-56
2022/10/05 00:16:57;;;;;;;26.70;11.10;;;;;;;7.01;85.55;100930.16;106306;1268;26507;-55
2022/10/05 00:19:32;;;;;;;26.20;12.00;;;;;;;7.01;85.75;100933.82;106107;1268;25527;-57
2022/10/05 00:22:10;;;;;;;29.80;12.60;;;;;;;7.00;85.67;100936.70;106157;1268;22848;-57
2022/10/05 00:24:42;;;;;;;33.00;12.70;;;;;;;6.98;85.65;100935.09;106427;1268;24337;-57
2022/10/05 00:27:19;;;;;;;31.50;13.10;;;;;;;6.96;85.72;100936.07;106150;1268;22669;-57
2022/10/05 00:29:56;;;;;;;27.40;14.00;;;;;;;6.94;85.70;100933.04;106262;1268;25685;-56
2022/10/05 00:32:29;;;;;;;31.70;14.50;;;;;;;6.92;85.81;100928.11;106078;1268;23307;-56
2022/10/05 00:35:00;;;;;;;32.70;14.20;;;;;;;6.90;85.73;100926.02;106065;1265;24417;-57
2022/10/05 00:37:32;;;;;;;33.30;15.20;;;;;;;6.88;85.76;100916.08;106269;1267;22552;-57
2022/10/05 00:40:12;;;;;;;33.30;15.60;;;;;;;6.87;85.77;100910.86;106272;1265;25410;-54
2022/10/05 00:42:51;;;;;;;33.50;14.80;;;;;;;6.86;85.90;100913.11;106064;1268;22541;-56
2022/10/05 00:45:28;;;;;;;40.40;17.70;;;;;;;6.87;86.14;100902.40;106245;1265;22564;-56
2022/10/05 00:48:09;;;;;;;38.80;16.40;;;;;;;6.87;86.35;100898.17;106257;1265;22585;-57
2022/10/05 00:50:54;;;;;;;32.50;15.00;;;;;;;6.87;86.29;100898.67;106192;1267;25286;-58
2022/10/05 00:53:41;;;;;;;31.70;12.50;;;;;;;6.87;86.61;100887.63;106374;1266;22523;-58
2022/10/05 00:56:31;;;;;;;29.70;12.70;;;;;;;6.88;86.65;100889.37;106235;1265;24223;-57
2022/10/05 00:59:16;;;;;;;29.00;12.00;;;;;;;6.87;86.72;100894.85;106205;1267;22544;-57
2022/10/05 01:01:57;;;;;;;24.80;12.30;;;;;;;6.89;87.03;100892.51;106141;1268;23112;-58
2022/10/05 01:04:37;;;;;;;27.50;11.00;;;;;;;6.90;87.02;100895.70;106294;1268;25277;-57
2022/10/05 01:07:16;;;;;;;28.10;11.10;;;;;;;6.91;87.11;100893.94;106481;1265;25216;-55
2022/10/05 01:09:56;;;;;;;21.80;9.60;;;;;;;6.92;87.09;100895.35;106237;1267;22724;-57
2022/10/05 01:12:36;;;;;;;24.60;9.20;;;;;;;6.91;87.10;100901.46;106039;1266;22696;-56
2022/10/05 01:15:14;;;;;;;20.50;8.90;;;;;;;6.92;87.13;100894.50;106160;1268;29495;-56
2022/10/05 01:17:54;;;;;;;27.10;10.30;;;;;;;6.91;87.08;100882.70;106078;1267;24968;-56
2022/10/05 01:20:29;;;;;;;;;;;;;;;6.92;87.29;100879.50;106471;1264;25613;-57
2022/10/05 01:23:39;;;;;;;23.00;8.80;;;;;;;6.92;87.39;100880.37;106183;1268;24325;-58
2022/10/05 01:26:30;;;;;;;21.90;8.00;;;;;;;6.92;87.46;100882.34;106164;1265;22873;-57
2022/10/05 01:29:07;;;;;;;28.20;9.60;;;;;;;6.92;87.49;100878.52;106153;1268;25425;-59
2022/10/05 01:31:45;;;;;;;21.80;9.50;;;;;;;6.93;87.60;100872.65;106158;1268;25353;-57
2022/10/05 01:34:29;;;;;;;26.20;8.90;;;;;;;6.94;87.72;100876.11;106201;1265;22707;-59
2022/10/05 01:37:11;;;;;;;22.70;8.30;;;;;;;6.93;87.87;100886.27;106150;1268;22552;-57
2022/10/05 01:39:50;;;;;;;19.80;7.10;;;;;;;6.93;87.86;100880.64;106148;1268;23146;-57
2022/10/05 01:42:33;;;;;;;15.70;7.00;;;;;;;6.93;87.91;100874.68;106119;1265;22695;-56
2022/10/05 01:45:11;;;;;;;19.40;6.80;;;;;;;6.92;87.88;100869.98;106219;1267;26599;-57
2022/10/05 01:47:48;;;;;;;21.70;7.30;;;;;;;6.91;87.95;100874.52;106015;1268;22775;-56
2022/10/05 01:50:32;;;;;;;19.40;7.30;;;;;;;6.90;87.98;100875.58;106090;1265;22544;-60
2022/10/05 01:53:13;;;;;;;19.10;6.60;;;;;;;6.89;87.99;100876.63;106036;1268;26726;-57
2022/10/05 01:55:53;;;;;;;22.50;6.60;;;;;;;6.89;87.99;100863.88;105988;1268;22627;-55
2022/10/05 01:58:33;;;;;;;24.50;8.90;;;;;;;6.86;87.76;100864.27;106028;1265;22678;-57
2022/10/05 02:01:14;;;;;;;22.60;9.10;;;;;;;6.82;87.81;100869.30;106211;1267;22570;-57
2022/10/05 02:03:50;;;;;;;27.50;9.40;;;;;;;6.78;87.74;100881.38;106010;1268;25604;-56
2022/10/05 02:06:24;;;;;;;26.00;9.80;;;;;;;6.76;87.64;100874.86;105985;1265;23016;-56
2022/10/05 02:08:59;;;;;;;30.30;10.40;;;;;;;6.73;87.52;100871.98;106232;1268;22582;-57
2022/10/05 02:11:30;;;;;;;26.90;8.90;;;;;;;6.72;87.29;100864.97;106303;1265;25301;-57
2022/10/05 02:14:07;;;;;;;20.80;8.40;;;;;;;6.71;87.30;100862.07;106076;1267;22604;-57
2022/10/05 02:16:42;;;;;;;21.00;7.90;;;;;;;6.66;87.19;100862.05;106103;1268;22561;-57
2022/10/05 02:19:18;;;;;;;21.00;7.40;;;;;;;6.63;87.31;100871.58;106121;1265;22562;-57
2022/10/05 02:21:55;;;;;;;21.20;8.40;;;;;;;6.59;87.36;100881.02;106146;1268;22541;-55
2022/10/05 02:24:32;;;;;;;23.00;7.80;;;;;;;6.53;87.33;100886.08;106370;1265;22702;-58
2022/10/05 02:27:06;;;;;;;20.00;7.70;;;;;;;6.50;87.43;100893.15;106322;1268;25350;-57
2022/10/05 02:29:42;;;;;;;18.00;6.50;;;;;;;6.48;87.69;100891.22;106319;1268;27408;-57
2022/10/05 02:32:20;;;;;;;16.10;5.40;;;;;;;6.45;87.59;100887.89;106064;1265;25400;-58
2022/10/05 02:34:52;;;;;;;17.80;6.00;;;;;;;6.42;87.45;100877.43;105950;1265;22695;-56
2022/10/05 02:37:34;;;;;;;17.90;5.90;;;;;;;6.38;87.28;100876.73;106081;1265;25294;-57
2022/10/05 02:40:21;;;;;;;19.90;7.70;;;;;;;6.34;87.22;100878.25;106080;1265;22551;-56
2022/10/05 02:43:01;;;;;;;22.00;7.30;;;;;;;6.31;87.29;100877.85;106081;1265;24428;-58
2022/10/05 02:45:41;;;;;;;18.90;6.80;;;;;;;6.31;87.50;100876.69;106111;1268;25339;-56
2022/10/05 02:48:22;;;;;;;20.50;5.60;;;;;;;6.31;87.53;100873.96;106085;1268;22555;-58
2022/10/05 02:51:01;;;;;;;21.80;6.10;;;;;;;6.32;87.56;100871.41;106127;1268;22589;-57
2022/10/05 02:53:40;;;;;;;15.70;6.10;;;;;;;6.33;87.83;100868.86;106182;1265;22637;-56
2022/10/05 02:56:23;;;;;;;19.10;5.70;;;;;;;6.32;87.96;100870.30;106500;1267;22595;-58
2022/10/05 02:59:02;;;;;;;16.70;6.40;;;;;;;6.34;88.12;100870.41;106451;1265;22552;-56
2022/10/05 03:01:37;;;;;;;19.80;6.30;;;;;;;6.34;88.28;100872.55;106141;1268;22539;-55
2022/10/05 03:04:21;;;;;;;15.70;5.20;;;;;;;6.35;88.38;100866.74;106078;1268;24176;-55
2022/10/05 03:07:05;;;;;;;16.90;5.90;;;;;;;6.35;88.44;100865.48;106232;1265;24431;-56
2022/10/05 03:09:42;;;;;;;15.70;5.40;;;;;;;6.36;88.60;100863.77;106165;1268;22855;-55
2022/10/05 03:12:30;;;;;;;22.30;5.60;;;;;;;6.37;88.71;100865.11;105951;1268;22690;-58
2022/10/05 03:15:19;;;;;;;19.40;4.90;;;;;;;6.38;88.81;100869.59;106065;1268;22537;-59
2022/10/05 03:18:00;;;;;;;19.60;5.40;;;;;;;6.39;88.79;100864.66;106067;1265;25529;-53
2022/10/05 03:20:40;;;;;;;16.30;5.90;;;;;;;6.40;88.95;100863.50;106152;1265;26298;-58
2022/10/05 03:23:17;;;;;;;18.60;5.70;;;;;;;6.42;89.01;100857.69;106075;1268;22533;-60
2022/10/05 03:26:17;;;;;;;17.70;5.50;;;;;;;6.45;89.16;100850.55;105968;1268;22550;-57
2022/10/05 03:28:58;;;;;;;20.00;6.30;;;;;;;6.48;89.45;100848.09;106180;1268;25301;-54
2022/10/05 03:31:38;;;;;;;23.60;6.90;;;;;;;6.51;89.48;100838.34;106037;1266;24138;-57
2022/10/05 03:34:16;;;;;;;17.70;6.10;;;;;;;6.55;89.54;100836.58;106129;1267;22685;-58
2022/10/05 03:36:55;;;;;;;17.00;5.20;;;;;;;6.59;89.79;100829.27;106019;1268;24293;-56
2022/10/05 03:39:35;;;;;;;15.80;5.20;;;;;;;6.63;89.94;100825.75;106004;1266;22778;-57
2022/10/05 03:42:13;;;;;;;14.40;4.90;;;;;;;6.66;90.13;100823.13;106159;1268;24969;-56
2022/10/05 03:44:55;;;;;;;20.20;5.90;;;;;;;6.69;90.39;100828.60;106400;1268;22541;-57
2022/10/05 03:47:34;;;;;;;16.40;5.60;;;;;;;6.72;90.46;100833.58;106220;1268;25512;-54
2022/10/05 03:50:28;;;;;;;17.10;6.90;;;;;;;6.76;90.65;100838.55;106108;1265;22557;-57
2022/10/05 03:53:03;;;;;;;18.40;5.70;;;;;;;6.80;90.72;100842.87;106116;1265;22589;-56
2022/10/05 03:55:42;;;;;;;16.10;5.40;;;;;;;6.83;90.68;100832.65;106549;1265;25298;-56
2022/10/05 03:58:17;;;;;;;17.10;6.10;;;;;;;6.85;90.71;100829.95;106288;1265;24240;-55
2022/10/05 04:00:53;;;;;;;20.90;5.10;;;;;;;6.87;90.63;100824.84;106434;1265;25462;-57
2022/10/05 04:03:32;;;;;;;16.90;5.00;;;;;;;6.89;90.64;100829.27;106326;1265;22519;-56
2022/10/05 04:06:09;;;;;;;18.20;5.00;;;;;;;6.91;90.73;100830.42;106160;1265;25473;-54
2022/10/05 04:08:45;;;;;;;20.00;5.60;;;;;;;6.92;90.69;100832.30;106108;1265;24269;-54
2022/10/05 04:11:20;;;;;;;17.30;5.30;;;;;;;6.93;90.64;100832.49;106190;1265;22601;-56
2022/10/05 04:13:56;;;;;;;16.20;6.00;;;;;;;6.95;90.78;100835.85;106169;1265;22541;-56
2022/10/05 04:16:31;;;;;;;19.60;5.70;;;;;;;6.96;90.73;100828.77;106080;1267;22958;-55
2022/10/05 04:19:09;;;;;;;15.80;4.10;;;;;;;6.97;90.75;100830.80;107544;1267;22531;-57
2022/10/05 04:21:46;;;;;;;19.90;6.00;;;;;;;6.99;90.82;100825.77;106155;1268;22545;-58
2022/10/05 04:24:23;;;;;;;19.00;5.60;;;;;;;7.00;90.84;100821.54;106239;1268;27178;-56
2022/10/05 04:26:58;;;;;;;14.50;5.10;;;;;;;7.01;90.85;100820.85;108210;1267;22778;-58
2022/10/05 04:29:37;;;;;;;22.80;6.10;;;;;;;7.03;91.02;100822.63;106028;1267;23530;-57
2022/10/05 04:32:24;;;;;;;20.70;6.00;;;;;;;7.05;91.08;100818.11;106036;1267;22541;-56
2022/10/05 04:35:07;;;;;;;19.20;5.30;;;;;;;7.05;91.11;100820.96;106100;1268;22577;-55
2022/10/05 04:37:49;;;;;;;18.00;4.80;;;;;;;7.07;91.05;100827.02;106113;1267;22603;-57
2022/10/05 04:40:34;;;;;;;17.30;5.50;;;;;;;7.08;91.13;100826.52;106102;1268;22521;-57
2022/10/05 04:43:14;;;;;;;14.00;4.80;;;;;;;7.09;91.22;100821.90;106220;1268;25217;-58
2022/10/05 04:45:55;;;;;;;;;;;;;;;7.09;91.27;100817.22;106100;1268;25322;-56
2022/10/05 04:48:37;;;;;;;;;;;;;;;7.09;91.35;100814.76;106062;1267;25631;-58
2022/10/05 04:51:25;;;;;;;20.70;5.60;;;;;;;7.10;91.31;100813.61;106117;1265;25368;-59
2022/10/05 04:54:04;;;;;;;20.10;5.50;;;;;;;7.11;91.55;100806.20;106417;1265;22540;-57
2022/10/05 04:56:41;;;;;;;16.50;6.00;;;;;;;7.13;91.50;100795.83;106989;1267;25592;-55
2022/10/05 04:59:42;;;;;;;21.80;6.60;;;;;;;7.15;91.60;100798.63;106074;1267;25449;-56
2022/10/05 05:02:26;;;;;;;18.50;5.90;;;;;;;7.18;91.65;100797.60;106017;1268;22744;-57
2022/10/05 05:05:22;;;;;;;18.50;6.40;;;;;;;7.20;91.86;100794.92;106033;1265;25274;-58
2022/10/05 05:08:02;;;;;;;18.50;7.20;;;;;;;7.23;91.92;100792.17;106174;1268;24081;-56
2022/10/05 05:11:04;;;;;;;19.60;6.00;;;;;;;7.26;91.97;100792.80;106344;1266;22542;-56
2022/10/05 05:13:57;;;;;;;22.50;6.00;;;;;;;7.29;92.09;100793.67;106090;1268;22691;-56
2022/10/05 05:16:36;;;;;;;16.20;5.90;;;;;;;7.31;92.08;100797.02;109556;1273;22241;-57
2022/10/05 05:19:29;;;;;;;17.00;5.60;;;;;;;7.33;92.24;100803.63;107174;1273;22597;-56
2022/10/05 05:22:03;;;;;;;13.80;4.60;;;;;;;7.36;92.15;100808.95;105269;1279;24321;-56
2022/10/05 05:24:49;;;;;;;17.70;5.60;;;;;;;7.38;92.16;100812.95;105341;1279;24693;-57
2022/10/05 05:27:36;;;;;;;17.70;6.00;;;;;;;7.40;92.01;100814.38;105320;1278;25426;-56
2022/10/05 05:30:20;;;;;;;16.50;5.50;;;;;;;7.42;91.98;100813.67;105368;1279;22534;-57
2022/10/05 05:33:07;;;;;;;18.00;6.00;;;;;;;7.44;92.20;100812.84;105377;1279;22694;-56
2022/10/05 05:36:13;;;;;;;18.90;5.80;;;;;;;7.46;92.08;100810.08;105375;1279;22589;-56
2022/10/05 05:38:52;;;;;;;19.30;6.30;;;;;;;7.47;92.21;100811.20;104768;1284;22611;-56
2022/10/05 05:41:34;;;;;;;23.80;7.00;;;;;;;7.49;92.36;100806.17;104755;1283;22580;-56
2022/10/05 05:44:20;;;;;;;21.60;6.90;;;;;;;7.49;92.27;100808.77;104755;1284;22706;-57
2022/10/05 05:46:58;;;;;;;19.90;5.90;;;;;;;7.50;92.24;100813.10;104773;1285;22556;-57
2022/10/05 05:49:42;;;;;;;19.70;6.50;;;;;;;7.51;92.26;100819.19;104736;1284;22550;-60
2022/10/05 05:52:20;;;;;;;21.80;7.30;;;;;;;7.52;92.20;100821.95;104812;1284;25373;-56
2022/10/05 05:54:57;;;;;;;18.00;6.10;;;;;;;7.53;92.20;100824.21;105280;1277;22529;-56
2022/10/05 05:57:35;;;;;;;18.00;5.30;;;;;;;7.52;92.31;100821.86;105332;1276;22535;-55
2022/10/05 06:00:16;;;;;;;19.40;6.90;;;;;;;7.52;92.23;100825.82;105486;1273;25358;-56
2022/10/05 06:03:04;;;;;;;21.90;7.90;;;;;;;7.52;92.28;100839.48;105628;1271;25327;-56
2022/10/05 06:05:42;;;;;;;26.80;8.50;;;;;;;7.53;92.58;100839.61;105644;1272;25403;-57
2022/10/05 06:08:20;;;;;;;22.50;7.00;;;;;;;7.54;92.38;100840.22;105589;1272;22993;-56
2022/10/05 06:10:57;;;;;;;22.20;7.70;;;;;;;7.55;92.51;100838.67;105632;1271;25229;-55
2022/10/05 06:13:34;;;;;;;25.80;7.00;;;;;;;7.57;92.59;100833.53;105491;1271;25578;-56
2022/10/05 06:16:17;;;;;;;22.80;6.50;;;;;;;7.60;92.80;100835.02;105751;1268;24435;-55
2022/10/05 06:18:54;;;;;;;25.20;7.30;;;;;;;7.64;92.87;100833.77;106098;1265;23201;-56
2022/10/05 06:21:32;;;;;;;23.50;6.70;;;;;;;7.70;93.28;100834.62;106142;1265;26496;-53
2022/10/05 06:24:12;;;;;;;22.30;6.80;;;;;;;7.77;93.43;100834.58;106195;1268;22549;-56
2022/10/05 06:27:14;;;;;;;18.90;6.60;;;;;;;7.84;93.45;100830.45;106135;1267;25653;-56
2022/10/05 06:30:02;;;;;;;18.20;6.90;;;;;;;7.93;94.17;100836.03;106242;1268;24308;-54
2022/10/05 06:32:43;;;;;;;20.80;8.40;;;;;;;8.03;94.39;100834.43;106178;1268;22792;-55
2022/10/05 06:35:29;;;;;;;18.60;6.50;;;;;;;8.11;94.50;100835.75;106002;1265;22602;-57
2022/10/05 06:38:17;;;;;;;21.90;7.60;;;;;;;8.21;94.55;100835.98;106257;1268;25351;-54
2022/10/05 06:41:02;;;;;;;19.00;7.10;;;;;;;8.30;95.00;100840.80;105980;1268;25541;-56
2022/10/05 06:43:44;;;;;;;20.60;7.00;;;;;;;8.39;95.27;100842.37;106055;1265;25412;-55
2022/10/05 06:46:22;;;;;;;31.40;8.20;;;;;;;8.49;95.41;100837.76;106002;1268;22532;-55
2022/10/05 06:49:14;;;;;;;22.50;8.40;;;;;;;8.57;95.37;100843.40;106144;1268;25448;-55
2022/10/05 06:51:56;;;;;;;27.60;8.00;;;;;;;8.67;95.23;100847.70;106065;1268;25225;-56
2022/10/05 06:54:48;;;;;;;23.20;8.80;;;;;;;8.75;95.43;100848.89;106037;1268;22522;-55
2022/10/05 06:57:46;;;;;;;22.40;8.40;;;;;;;8.85;95.48;100852.29;106032;1268;23167;-55
2022/10/05 07:00:23;;;;;;;17.70;6.20;;;;;;;8.95;95.87;100856.66;105932;1265;22531;-57
2022/10/05 07:03:02;;;;;;;20.00;7.70;;;;;;;9.05;95.90;100857.29;106141;1268;22677;-56
2022/10/05 07:05:47;;;;;;;21.00;7.60;;;;;;;9.16;96.26;100855.38;106119;1267;22500;-56
2022/10/05 07:08:28;;;;;;;20.80;6.80;;;;;;;9.26;96.23;100847.48;106165;1268;22528;-57
2022/10/05 07:11:09;;;;;;;19.80;7.00;;;;;;;9.37;96.65;100849.48;105996;1268;24361;-57
2022/10/05 07:13:59;;;;;;;20.10;6.70;;;;;;;9.47;97.00;100849.88;105937;1268;25378;-56
2022/10/05 07:16:46;;;;;;;23.00;6.40;;;;;;;9.58;96.86;100845.15;106179;1267;22596;-56
2022/10/05 07:19:31;;;;;;;22.30;6.50;;;;;;;9.69;97.45;100848.67;106021;1268;25207;-57
2022/10/05 07:22:36;;;;;;;17.30;6.20;;;;;;;9.82;97.54;100845.06;106059;1268;24150;-57
2022/10/05 07:25:13;;;;;;;16.20;4.70;;;;;;;9.97;97.78;100851.54;105916;1268;24110;-56
2022/10/05 07:27:51;;;;;;;15.30;4.90;;;;;;;10.09;97.88;100850.74;106099;1268;24258;-57
2022/10/05 07:30:23;;;;;;;13.90;5.40;;;;;;;10.21;98.08;100854.52;106105;1268;22547;-55
2022/10/05 07:33:01;;;;;;;13.00;5.50;;;;;;;10.31;97.91;100862.75;106266;1268;22787;-56
2022/10/05 07:38:36;;;;;;;16.50;4.00;;;;;;;10.53;97.97;100867.55;105967;1268;22550;-57
2022/10/05 07:41:18;;;;;;;16.60;4.70;;;;;;;10.62;97.70;100865.73;106058;1268;25296;-56
2022/10/05 07:43:55;;;;;;;24.20;4.80;;;;;;;10.72;97.75;100863.51;106050;1268;22543;-57
2022/10/05 07:46:34;;;;;;;17.70;4.10;;;;;;;10.82;97.73;100861.58;105928;1268;22553;-56
2022/10/05 07:49:17;;;;;;;16.60;4.40;;;;;;;10.93;97.69;100857.30;105979;1268;24417;-57
2022/10/05 07:51:53;;;;;;;16.10;3.50;;;;;;;11.04;97.46;100862.94;106007;1265;22543;-58
2022/10/05 07:54:29;;;;;;;13.80;2.70;;;;;;;11.17;97.55;100862.48;106039;1268;22558;-57
2022/10/05 07:57:13;;;;;;;9.70;1.80;;;;;;;11.29;97.26;100860.42;106121;1268;24316;-56
2022/10/05 07:59:52;;;;;;;11.00;2.20;;;;;;;11.42;97.21;100856.21;106085;1268;22774;-57
2022/10/05 08:02:32;;;;;;;13.00;2.70;;;;;;;11.54;97.22;100852.40;106145;1268;22513;-56
2022/10/05 08:05:10;;;;;;;8.90;2.00;;;;;;;11.65;97.01;100842.95;106158;1268;22516;-57
2022/10/05 08:07:41;;;;;;;6.50;1.80;;;;;;;11.77;96.94;100838.53;106191;1265;25225;-57
2022/10/05 08:10:26;;;;;;;6.60;1.60;;;;;;;11.87;96.82;100842.23;106087;1265;23147;-56
2022/10/05 08:13:08;;;;;;;11.60;1.90;;;;;;;11.99;96.89;100841.60;106138;1268;22991;-55
2022/10/05 08:15:42;;;;;;;6.20;1.30;;;;;;;12.14;96.76;100844.80;106093;1268;22544;-57
2022/10/05 08:18:21;;;;;;;6.80;1.60;;;;;;;12.26;96.35;100840.86;106086;1268;24391;-57
2022/10/05 08:20:57;;;;;;;6.60;1.50;;;;;;;12.37;96.25;100839.17;105991;1268;24144;-57
2022/10/05 08:23:37;;;;;;;7.00;1.50;;;;;;;12.48;95.93;100835.22;106273;1265;22619;-54
2022/10/05 08:26:21;;;;;;;9.30;2.00;;;;;;;12.58;95.58;100839.27;106039;1268;22560;-56
2022/10/05 08:29:04;;;;;;;8.00;1.70;;;;;;;12.69;95.06;100835.90;106063;1265;22579;-57
2022/10/05 08:31:39;;;;;;;8.40;1.60;;;;;;;12.78;94.57;100831.09;106034;1268;24326;-56
2022/10/05 08:34:22;;;;;;;12.50;1.50;;;;;;;12.87;94.64;100827.66;106077;1268;24419;-57
2022/10/05 08:37:02;;;;;;;7.70;1.40;;;;;;;12.95;94.48;100826.18;106024;1268;22562;-56
2022/10/05 08:39:39;;;;;;;4.50;1.10;;;;;;;13.05;94.25;100827.96;106047;1268;27637;-58
2022/10/05 08:42:37;;;;;;;5.80;1.50;;;;;;;13.20;94.15;100829.05;105967;1267;22697;-57
2022/10/05 08:45:50;;;;;;;5.80;1.30;;;;;;;13.34;93.69;100833.67;106121;1268;22560;-58
2022/10/05 08:48:49;;;;;;;7.60;1.30;;;;;;;13.51;93.22;100835.25;106151;1268;22927;-58
2022/10/05 08:51:40;;;;;;;5.50;1.20;;;;;;;13.65;92.99;100837.77;106001;1268;25356;-56
2022/10/05 08:54:39;;;;;;;6.10;1.20;;;;;;;13.79;92.51;100840.50;106050;1268;24350;-59
2022/10/05 08:57:41;;;;;;;6.20;1.30;;;;;;;13.93;91.92;100837.79;106071;1265;22686;-59
2022/10/05 09:00:17;;;;;;;6.40;1.20;;;;;;;14.06;91.69;100833.19;106005;1268;25222;-59
2022/10/05 09:03:25;;;;;;;6.20;1.50;;;;;;;14.17;91.59;100832.63;106180;1268;22597;-58
2022/10/05 09:06:33;;;;;;;7.00;1.30;;;;;;;14.30;91.19;100836.96;105497;1272;22684;-55
2022/10/05 09:09:35;;;;;;;6.30;1.50;;;;;;;14.46;90.70;100839.43;105507;1278;23236;-58
2022/10/05 09:12:28;;;;;;;9.40;1.70;;;;;;;14.61;90.17;100836.77;105245;1279;24372;-57
2022/10/05 09:15:22;;;;;;;5.70;1.20;;;;;;;14.78;89.75;100837.48;105467;1279;22820;-57
2022/10/05 09:18:22;;;;;;;5.40;1.20;;;;;;;14.90;89.08;100832.23;105373;1278;22567;-58
2022/10/05 09:20:57;;;;;;;5.10;1.20;;;;;;;15.04;88.69;100830.18;105475;1279;22563;-57
2022/10/05 09:23:41;;;;;;;5.70;1.30;;;;;;;15.16;88.41;100827.09;105520;1279;24258;-57
2022/10/05 09:26:43;;;;;;;3.70;0.90;;;;;;;15.28;88.00;100828.79;105352;1277;22645;-57
2022/10/05 09:29:52;;;;;;;12.00;1.00;;;;;;;15.41;86.97;100830.75;105497;1279;22546;-57
2022/10/05 09:32:59;;;;;;;7.20;0.90;;;;;;;15.53;86.66;100837.79;105672;1278;22623;-58
2022/10/05 09:36:06;;;;;;;4.20;1.00;;;;;;;15.65;86.27;100836.66;105117;1281;22580;-63
2022/10/05 09:38:58;;;;;;;11.30;0.90;;;;;;;15.77;85.76;100837.04;104691;1287;23011;-59
2022/10/05 09:42:14;;;;;;;8.40;1.00;;;;;;;15.86;85.58;100835.80;105166;1281;25416;-58
2022/10/05 09:45:26;;;;;;;9.30;1.00;;;;;;;15.95;84.58;100836.05;104535;1283;24232;-59
2022/10/05 09:48:28;;;;;;;3.40;0.70;;;;;;;16.04;84.29;100839.91;104456;1288;22566;-58
2022/10/05 09:51:28;;;;;;;5.90;0.70;;;;;;;16.14;84.03;100836.32;104418;1287;26523;-58
2022/10/05 09:54:32;;;;;;;4.10;0.70;;;;;;;16.22;83.39;100827.25;104433;1288;22619;-58
2022/10/05 09:57:32;;;;;;;4.10;0.60;;;;;;;16.29;83.24;100821.35;104448;1286;26631;-59
2022/10/05 10:00:15;;;;;;;4.70;0.70;;;;;;;16.36;82.75;100824.45;104374;1287;22511;-61
2022/10/05 10:03:20;;;;;;;4.80;0.70;;;;;;;16.40;82.39;100823.81;104563;1287;22667;-60
2022/10/05 10:06:20;;;;;;;2.70;0.80;;;;;;;16.48;82.66;100820.83;104150;1291;22566;-58
2022/10/05 10:09:08;;;;;;;6.90;0.80;;;;;;;16.54;82.30;100816.67;104089;1291;25350;-60
2022/10/05 10:11:53;;;;;;;4.90;0.80;;;;;;;16.62;81.83;100813.68;104142;1288;25499;-59
2022/10/05 10:15:10;;;;;;;7.60;0.90;;;;;;;16.69;81.51;100812.17;104323;1287;23251;-60
2022/10/05 10:18:08;;;;;;;4.60;1.00;;;;;;;16.76;80.28;100806.70;104727;1284;22608;-58
2022/10/05 10:20:59;;;;;;;3.90;0.70;;;;;;;16.84;80.42;100795.59;105035;1281;25362;-59
2022/10/05 10:23:58;;;;;;;7.40;1.10;;;;;;;16.91;80.16;100794.64;105823;1271;23094;-60
2022/10/05 10:27:01;;;;;;;3.70;0.70;;;;;;;16.96;79.41;100792.55;105583;1271;22658;-58
2022/10/05 10:30:02;;;;;;;4.80;0.70;;;;;;;17.02;78.85;100789.94;105686;1271;22943;-60
2022/10/05 10:33:10;;;;;;;14.10;0.80;;;;;;;17.07;78.27;100787.33;105793;1271;24355;-60
2022/10/05 10:35:49;;;;;;;4.20;0.80;;;;;;;17.13;78.15;100786.30;105643;1277;22683;-60
2022/10/05 10:38:30;;;;;;;5.10;0.80;;;;;;;17.18;77.66;100791.51;105633;1276;23225;-59
2022/10/05 10:41:26;;;;;;;9.20;1.00;;;;;;;17.24;76.89;100794.98;105591;1277;25441;-60
2022/10/05 10:44:39;;;;;;;8.00;1.10;;;;;;;17.30;76.25;100788.95;105691;1271;25544;-59
2022/10/05 10:47:40;;;;;;;5.00;0.80;;;;;;;17.39;75.88;100783.15;104997;1284;22569;-61
2022/10/05 10:50:42;;;;;;;3.40;0.60;;;;;;;17.43;75.46;100785.14;103994;1287;339353;-62
2022/10/05 10:53:36;;;;;;;6.50;1.10;;;;;;;17.47;74.83;100787.92;104249;1287;22638;-60
2022/10/05 10:56:29;;;;;;;3.20;0.50;;;;;;;17.52;74.67;100783.27;103780;1293;22729;-59
2022/10/05 10:59:52;;;;;;;5.20;0.90;;;;;;;17.55;74.47;100785.77;103794;1293;25350;-59
2022/10/05 11:02:55;;;;;;;3.30;0.60;;;;;;;17.59;73.70;100791.69;103217;1299;24339;-60
2022/10/05 11:05:49;;;;;;;5.00;1.00;;;;;;;17.60;72.32;100791.95;103415;1299;22563;-58
2022/10/05 11:09:09;;;;;;;6.50;0.60;;;;;;;17.62;71.90;100789.42;103573;1298;25673;-59
2022/10/05 11:12:12;;;;;;;6.80;0.70;;;;;;;17.66;71.79;100795.02;102745;1304;22566;-58
2022/10/05 11:15:49;;;;;;;5.50;0.70;;;;;;;17.73;71.47;100787.98;102646;1305;22585;-60
2022/10/05 11:25:07;;;;;;;3.00;0.60;;;;;;;17.91;69.91;100768.16;102963;1300;24446;-60
2022/10/05 11:28:12;;;;;;;5.90;0.50;;;;;;;17.96;69.10;100762.71;103341;1297;25575;-59
2022/10/05 11:31:20;;;;;;;5.40;0.60;;;;;;;17.99;69.22;100760.60;102810;1300;22677;-59
2022/10/05 11:34:21;;;;;;;2.90;0.60;;;;;;;18.03;68.82;100757.19;103544;1290;22846;-60
2022/10/05 11:37:31;;;;;;;7.10;0.50;;;;;;;18.06;68.87;100753.08;104047;1290;22639;-60
2022/10/05 11:40:24;;;;;;;2.70;0.70;;;;;;;18.08;68.58;100748.48;104029;1290;24807;-58
2022/10/05 11:43:43;;;;;;;3.10;0.30;;;;;;;18.12;68.39;100741.96;104156;1287;24321;-60
2022/10/05 11:46:24;;;;;;;6.00;0.80;;;;;;;18.16;67.23;100744.86;104138;1291;26638;-59
2022/10/05 11:49:12;;;;;;;4.10;0.70;;;;;;;18.19;66.92;100744.35;104128;1287;25196;-59
2022/10/05 11:51:59;;;;;;;2.50;0.50;;;;;;;18.22;67.07;100739.55;104312;1284;24402;-60
2022/10/05 11:55:10;;;;;;;3.70;0.60;;;;;;;18.25;66.79;100735.53;105005;1278;24224;-60
2022/10/05 11:57:49;;;;;;;8.10;0.60;;;;;;;18.27;66.35;100730.50;105207;1281;22572;-59
2022/10/05 12:00:24;;;;;;;6.50;1.00;;;;;;;18.28;66.02;100720.93;104989;1281;22590;-59
2022/10/05 12:03:17;;;;;;;3.90;0.80;;;;;;;18.30;66.33;100715.37;104983;1281;22612;-59
2022/10/05 12:06:04;;;;;;;6.30;0.90;;;;;;;18.33;65.75;100720.44;104916;1281;25314;-60
2022/10/05 12:08:50;;;;;;;5.60;0.80;;;;;;;18.37;65.19;100719.08;105245;1277;24245;-60
2022/10/05 12:11:44;;;;;;;3.30;0.50;;;;;;;18.43;64.95;100712.54;105782;1277;22562;-59
2022/10/05 12:14:44;;;;;;;4.70;0.70;;;;;;;18.54;64.47;100710.27;105851;1277;22613;-60
2022/10/05 12:17:33;;;;;;;4.80;0.60;;;;;;;18.66;63.62;100705.94;105582;1278;22731;-59
2022/10/05 12:20:14;;;;;;;6.50;0.60;;;;;;;18.76;63.96;100702.41;105376;1274;24428;-59
2022/10/05 12:22:51;;;;;;;2.60;0.60;;;;;;;18.84;63.78;100698.77;105948;1271;22619;-59
2022/10/05 12:25:30;;;;;;;5.70;0.60;;;;;;;18.93;63.15;100697.56;105896;1271;22628;-58
2022/10/05 12:28:09;;;;;;;4.10;0.50;;;;;;;19.00;62.53;100694.37;105793;1271;22600;-59
2022/10/05 12:31:03;;;;;;;2.80;0.40;;;;;;;19.09;63.28;100693.73;105797;1271;22734;-59
2022/10/05 12:33:43;;;;;;;4.80;0.60;;;;;;;19.19;62.71;100695.23;105866;1271;26505;-59
2022/10/05 12:36:19;;;;;;;2.60;0.50;;;;;;;19.24;61.81;100694.84;106066;1268;24285;-61
2022/10/05 12:39:03;;;;;;;7.60;0.70;;;;;;;19.28;61.40;100692.42;106256;1268;22544;-59
2022/10/05 12:41:44;;;;;;;3.70;0.50;;;;;;;19.33;61.65;100687.51;106226;1268;22560;-60
2022/10/05 12:44:25;;;;;;;5.90;0.80;;;;;;;19.37;61.63;100686.40;106210;1268;24253;-58
2022/10/05 12:47:10;;;;;;;6.00;0.40;;;;;;;19.40;61.21;100687.39;106042;1268;22526;-59
2022/10/05 12:50:03;;;;;;;4.30;0.50;;;;;;;19.45;61.63;100686.78;106073;1268;23115;-58